EW1931 Weather Reports


Display with metric or nautical units.
time (UTC)temp
F
wind
direction
speed
MPH
gust
MPH
rain 1hr
in
rain 24hr
in
rain mn
in
humidity
%
barometer
mb
20210613013016 71 321 17.0 22.0 0.00 0.00 0.00 29 1007.9
20210613011514 71 304 16.0 22.0 0.00 0.00 0.00 29 1007.8
20210613010016 71 293 19.0 25.0 0.00 0.00 0.00 28 1007.7
20210613004522 72 299 17.0 25.0 0.00 0.00 0.00 29 1007.8
20210613003006 72 295 20.0 31.0 0.00 0.00 0.00 28 1007.7
20210613001533 73 298 18.0 29.0 0.00 0.00 0.00 27 1007.7
20210613000159 73 279 19.0 28.0 0.00 0.00 0.00 28 1007.7
20210612234628 74 273 20.0 29.0 0.00 0.00 0.00 28 1007.6
20210612233209 74 279 17.0 28.0 0.00 0.00 0.00 30 1007.6
20210612231806 73 274 19.0 32.0 0.00 0.00 0.00 29 1007.6
20210612230221 74 284 21.0 28.0 0.00 0.00 0.00 28 1007.4
20210612224604 74 265 24.0 31.0 0.00 0.00 0.00 30 1007.2
20210612223100 74 278 15.0 31.0 0.00 0.00 0.00 30 1007.3
20210612221641 74 269 18.0 30.0 0.00 0.00 0.00 30 1007.3
20210612220019 74 267 19.0 28.0 0.00 0.00 0.00 33 1007.0
20210612214556 74 244 17.0 27.0 0.00 0.00 0.00 32 1007.1
20210612213150 74 238 17.0 26.0 0.00 0.00 0.00 32 1007.0
20210612211716 72 277 14.0 26.0 0.00 0.00 0.00 35 1006.9
20210612210055 72 286 17.0 22.0 0.00 0.00 0.00 35 1007.0
20210612204606 72 286 15.0 21.0 0.00 0.00 0.00 35 1006.9
20210612203021 70 275 14.0 27.0 0.00 0.00 0.00 36 1007.0
20210612201520 72 258 16.0 24.0 0.00 0.00 0.00 36 1006.9
20210612194652 72 312 15.0 23.0 0.00 0.00 0.00 37 1006.9
20210612193149 71 309 13.0 27.0 0.00 0.00 0.00 34 1007.0
20210612191615 71 304 15.0 26.0 0.00 0.00 0.00 35 1006.9
20210612190220 70 321 13.0 23.0 0.00 0.00 0.00 36 1006.8
20210612184522 70 311 15.0 21.0 0.00 0.00 0.00 35 1006.7
20210612183042 70 312 14.0 26.0 0.00 0.00 0.00 36 1006.7
20210612181616 68 292 13.0 20.0 0.00 0.00 0.00 39 1006.7
20210612180116 68 267 14.0 19.0 0.00 0.00 0.00 40 1006.6
20210612174545 65 266 11.0 16.0 0.00 0.00 0.00 42 1006.7
20210612173105 65 290 7.0 14.0 0.00 0.00 0.00 43 1006.7
20210612171516 64 269 11.0 14.0 0.00 0.00 0.00 44 1006.7
20210612170012 63 250 9.0 12.0 0.00 0.00 0.00 46 1006.7
20210612164650 64 251 8.0 11.0 0.00 0.00 0.00 47 1006.6
20210612163153 65 243 8.0 12.0 0.00 0.00 0.00 45 1006.6
20210612161552 64 232 7.0 10.0 0.00 0.00 0.00 45 1006.5
20210612160036 64 212 8.0 10.0 0.00 0.00 0.00 43 1006.4
20210612154528 64 150 7.0 10.0 0.00 0.00 0.00 47 1006.1
20210612153007 62 171 3.0 6.0 0.00 0.00 0.00 48 1006.2
20210612151619 61 140 3.0 5.0 0.00 0.00 0.00 49 1006.2
20210612150133 60 159 3.0 7.0 0.00 0.00 0.00 50 1006.3
20210612144611 59 152 5.0 7.0 0.00 0.00 0.00 51 1006.4
20210612143020 57 165 4.0 8.0 0.00 0.00 0.00 54 1006.5
20210612141700 57 195 6.0 10.0 0.00 0.00 0.00 53 1006.7
20210612140242 57 180 9.0 11.0 0.00 0.00 0.00 52 1006.6
20210612134617 56 187 10.0 12.0 0.00 0.00 0.00 54 1006.6
20210612133113 54 193 6.0 8.0 0.00 0.00 0.00 58 1006.6
20210612131537 53 204 4.0 6.0 0.00 0.00 0.00 62 1006.6
20210612130024 52 204 4.0 6.0 0.00 0.00 0.00 63 1006.5
20210612124629 52 198 4.0 7.0 0.00 0.01 0.00 62 1006.5
20210612123234 52 180 6.0 7.0 0.00 0.01 0.00 63 1006.4
20210612121652 48 160 3.0 5.0 0.00 0.01 0.00 70 1006.6
20210612120059 47 159 2.0 3.0 0.00 0.01 0.00 71 1006.6
20210612114527 46 159 3.0 6.0 0.00 0.01 0.00 71 1006.5
20210612113037 46 159 4.0 6.0 0.00 0.01 0.00 71 1006.5
20210612111501 45 150 6.0 7.0 0.00 0.01 0.00 72 1006.6
20210612104621 45 142 5.0 7.0 0.00 0.01 0.00 70 1006.7
20210612103108 46 144 7.0 9.0 0.00 0.01 0.00 64 1006.7
20210612101550 47 171 2.0 4.0 0.00 0.01 0.00 61 1006.5
20210612100028 47 173 3.0 5.0 0.00 0.01 0.00 62 1006.6
20210612094750 47 121 2.0 4.0 0.00 0.01 0.00 60 1006.8
20210612093214 47 121 3.0 4.0 0.00 0.01 0.00 58 1006.9
20210612091604 48 120 2.0 3.0 0.00 0.01 0.00 55 1006.9
20210612090151 48 119 1.0 2.0 0.00 0.01 0.00 54 1006.8
20210612084535 48 119 1.0 2.0 0.00 0.01 0.00 54 1006.8
20210612083033 49 119 3.0 5.0 0.00 0.01 0.00 52 1006.9
20210612081652 50 131 4.0 7.0 0.00 0.01 0.00 52 1006.8
20210612080124 48 120 3.0 5.0 0.00 0.01 0.00 53 1007.0
20210612074602 48 123 2.0 3.0 0.00 0.01 0.00 56 1007.1
20210612073100 49 122 2.0 4.0 0.00 0.01 0.00 53 1007.0
20210612071540 48 123 2.0 4.0 0.00 0.01 0.00 52 1007.0
20210612070047 52 125 3.0 4.0 0.00 0.01 0.00 48 1006.9
20210612064622 54 134 4.0 7.0 0.00 0.01 0.00 42 1007.0
20210612063143 53 136 6.0 7.0 0.00 0.01 0.00 46 1007.1
20210612061617 49 109 4.0 7.0 0.00 0.01 0.00 54 1007.2
20210612060106 49 93 5.0 7.0 0.00 0.01 0.00 52 1006.9
20210612054533 52 319 4.0 5.0 0.00 0.01 0.01 48 1007.0
20210612053016 52 320 5.0 7.0 0.00 0.01 0.01 48 1007.0
20210612051733 54 303 6.0 9.0 0.00 0.01 0.01 45 1007.1
20210612050209 56 299 6.0 9.0 0.00 0.01 0.01 41 1007.2
20210612044635 59 215 2.0 4.0 0.00 0.01 0.01 33 1007.0
20210612043154 59 214 3.0 6.0 0.00 0.01 0.01 33 1006.8
20210612041539 58 277 3.0 4.0 0.00 0.01 0.01 36 1006.7
20210612040021 59 277 3.0 4.0 0.00 0.01 0.01 37 1006.5
20210612034507 59 277 3.0 4.0 0.00 0.01 0.01 38 1006.3
20210612033148 60 277 3.0 4.0 0.00 0.01 0.01 41 1006.3
20210612033001 60 277 3.0 4.0 0.00 0.01 0.01 42 1006.2
20210612031644 61 277 2.0 4.0 0.00 0.01 0.01 38 1006.4
20210612030112 63 276 4.0 5.0 0.00 0.01 0.01 38 1006.4
20210612024645 64 276 4.0 5.0 0.00 0.02 0.01 36 1006.3
20210612023128 65 277 4.0 8.0 0.00 0.02 0.01 32 1006.2
20210612021808 68 287 5.0 8.0 0.00 0.02 0.01 28 1006.2
20210612020137 69 273 7.0 10.0 0.00 0.02 0.01 24 1006.2
20210612014641 69 271 8.0 12.0 0.00 0.04 0.01 24 1006.2